Skip Navigation Links
NOAA logo - Click to go to the NOAA homepage
NOAA's National Weather Service
Alaska Aviation Weather Unit
  NWS logo - Click to go to the NWS homepage
Left Navbar Graphic     12 AKDT = 20 GMT

   
NOAA is celebrating 200 years of science, service, and stewardship. Visit the NOAA 200th celebration Web site to learn more.
USA.gov is the U.S. Government's official Web portal to all Federal, state and local government Web resources and services.
Facebook
NWS on Facebook

Important Change Regarding the AAWU Web Presence

 

Over the last several months, the AAWU has been working to navigate its webpages to a nationally supported server. Security, as well as other needs, have necessitated the change.  We have been given an extension for the site changeover while we diligently work at addressing feedback received. As of July 14, 2017, aawu.arh.noaa.gov will be discontinued. The new AAWU web address is weather.gov/aawu. It is now live and will run in-parallel with the old site until it is discontinued on July 14, 2017. Please continue to send any feedback or questions regarding the new webpages to nws.ar.aawu.webauthors@noaa.gov.  Thank you for your patience during this time of transition.
AAWU Home :: Display TAF Add Bookmark
SPECI PAHP 251404Z AUTO 30006KT 3/4SM BR OVC003 10/09 A2994 RMK AO2=

SPECI PAHP 251416Z AUTO 29006KT 1SM BR OVC003 10/09 A2994 RMK AO2=

SPECI PAHP 251445Z AUTO 30006KT 3/4SM BR OVC003 09/09 A2994 RMK AO2=

METAR PAHP 251456Z AUTO 29005KT 3/4SM BR OVC003 09/09 A2994 RMK AO2
     SLP177 T00940094 53001=

SPECI PAHP 251653Z AUTO 29007KT 3/4SM BR OVC003 09/09 A2995 RMK AO2=

METAR PAHP 251656Z AUTO 29007KT 3/4SM BR OVC003 09/09 A2995 RMK AO2
     SLP179 T00940094=

SPECI PAHP 251731Z AUTO 30006KT 1SM BR OVC003 09/09 A2995 RMK AO2=

SPECI PAHP 251750Z AUTO 30006KT 2SM BR OVC003 09/09 A2995 RMK AO2 VIS
     1V5=

METAR PAHP 251751Z AUTO 30005KT 2 1/2SM BR OVC003 09/09 A2995 RMK
 AO2 VIS 1 1/4V5 SLP178 T00940094 10100 20094 58001=

METAR PAHP 251856Z AUTO 29007KT 10SM OVC003 10/09 A2995 RMK AO2 SLP180
     T01000089=

SPECI PAHP 251909Z AUTO 30009KT 10SM OVC005 10/09 A2995 RMK AO2=

METAR PAHP 251956Z AUTO 31007KT 10SM OVC005 11/09 A2996 RMK AO2 SLP182
     T01060094=

SPECI PAHP 252008Z AUTO 29007KT 10SM OVC007 11/09 A2995 RMK AO2=


NOAA's National Weather Service
Alaska Aviation Weather Unit
6930 Sand Lake Road
Anchorage, AK 99502-1845
Disclaimer
Credits
Glossary
Privacy Policy
About Us
Career Opportunities
Contact AAWU Internet Services Site last modified: April, 17th 2012